Time;durP1;ratioP1;P1;durP2;ratioP2;P2;SDS_P1;SDS_P2;PMS_P1;PMS_P2;Temp;Humidity;BMP_temperature;BMP_pressure;BME280_temperature;BME280_humidity;BME280_pressure;Samples;Min_cycle;Max_cycle;Signal;HPM_P1;HPM_P2
2022/08/29 00:00:59;;;;;;;3.13;1.45;;;;;;;;;;5044308;28;20024;-75
2022/08/29 00:03:25;;;;;;;3.95;1.10;;;;;;;;;;5048308;28;20397;-80
2022/08/29 00:05:50;;;;;;;3.80;1.35;;;;;;;;;;5046598;28;20025;-74
2022/08/29 00:08:16;;;;;;;2.55;1.17;;;;;;;;;;5043883;28;20029;-80
2022/08/29 00:10:42;;;;;;;2.85;1.50;;;;;;;;;;5038315;28;20030;-74
2022/08/29 00:13:08;;;;;;;3.13;1.20;;;;;;;;;;5051829;28;20389;-77
2022/08/29 00:15:35;;;;;;;3.45;1.30;;;;;;;;;;5042220;28;20033;-80
2022/08/29 00:18:01;;;;;;;3.40;1.27;;;;;;;;;;5039346;28;20040;-75
2022/08/29 00:20:29;;;;;;;3.22;1.30;;;;;;;;;;5049564;28;20032;-78
2022/08/29 00:22:56;;;;;;;5.10;1.40;;;;;;;;;;5052397;28;20082;-78
2022/08/29 00:25:22;;;;;;;3.92;1.10;;;;;;;;;;5050206;28;20017;-74
2022/08/29 00:27:48;;;;;;;3.03;1.20;;;;;;;;;;5050929;28;20032;-75
2022/08/29 00:30:14;;;;;;;3.97;1.15;;;;;;;;;;5043590;28;20118;-79
2022/08/29 00:32:39;;;;;;;2.40;1.10;;;;;;;;;;5042508;28;20087;-81
2022/08/29 00:35:09;;;;;;;4.47;1.10;;;;;;;;;;5050925;28;20436;-74
2022/08/29 00:37:35;;;;;;;2.42;1.20;;;;;;;;;;5052137;28;20136;-74
2022/08/29 00:40:01;;;;;;;2.17;1.13;;;;;;;;;;5049542;28;20127;-81
2022/08/29 00:42:27;;;;;;;5.03;1.83;;;;;;;;;;5039111;28;20033;-74
2022/08/29 00:44:52;;;;;;;2.53;1.35;;;;;;;;;;5048724;28;20035;-76
2022/08/29 00:47:31;;;;;;;4.10;1.20;;;;;;;;;;5051460;28;20135;-78
2022/08/29 00:49:57;;;;;;;2.55;1.17;;;;;;;;;;5050864;28;20017;-76
2022/08/29 00:52:37;;;;;;;2.65;1.10;;;;;;;;;;5050629;28;20025;-80
2022/08/29 00:55:09;;;;;;;3.33;1.45;;;;;;;;;;5050184;28;20397;-81
2022/08/29 00:57:35;;;;;;;;;;;;;;;;;;5053076;28;20162;-80
2022/08/29 01:00:03;;;;;;;3.10;1.23;;;;;;;;;;5050509;28;19948;-74
2022/08/29 01:02:28;;;;;;;2.72;1.15;;;;;;;;;;5043182;28;20025;-76
2022/08/29 01:04:54;;;;;;;4.20;1.38;;;;;;;;;;5055319;28;20500;-76
2022/08/29 01:07:20;;;;;;;2.22;1.40;;;;;;;;;;5055331;28;20031;-74
2022/08/29 01:09:45;;;;;;;3.75;1.33;;;;;;;;;;5049349;28;20026;-78
2022/08/29 01:12:14;;;;;;;2.65;1.48;;;;;;;;;;5052767;28;20054;-81
2022/08/29 01:14:46;;;;;;;4.70;1.48;;;;;;;;;;5047670;28;20063;-80
2022/08/29 01:17:15;;;;;;;3.10;1.33;;;;;;;;;;5053297;28;20024;-75
2022/08/29 01:19:47;;;;;;;3.25;1.40;;;;;;;;;;5043241;28;20103;-78
2022/08/29 01:22:28;;;;;;;3.65;1.50;;;;;;;;;;5050733;28;20515;-78
2022/08/29 01:24:57;;;;;;;3.13;1.38;;;;;;;;;;5053104;28;20119;-78
2022/08/29 01:27:27;;;;;;;2.60;1.20;;;;;;;;;;5052952;28;20025;-75
2022/08/29 01:29:53;;;;;;;3.22;1.50;;;;;;;;;;5050913;28;20064;-80
2022/08/29 01:32:18;;;;;;;4.40;1.50;;;;;;;;;;5054868;28;20049;-75
2022/08/29 01:34:44;;;;;;;2.05;1.20;;;;;;;;;;5048661;28;20541;-80
2022/08/29 01:37:12;;;;;;;3.20;1.52;;;;;;;;;;5053374;28;20120;-76
2022/08/29 01:39:40;;;;;;;2.75;1.25;;;;;;;;;;5054056;28;20033;-80
2022/08/29 01:42:09;;;;;;;2.47;1.30;;;;;;;;;;5054909;28;20013;-81
2022/08/29 01:44:36;;;;;;;3.72;1.60;;;;;;;;;;5053398;28;20029;-78
2022/08/29 01:47:03;;;;;;;3.00;1.65;;;;;;;;;;5045870;28;20021;-75
2022/08/29 01:49:31;;;;;;;3.33;1.40;;;;;;;;;;5043651;28;20080;-78
2022/08/29 01:51:57;;;;;;;2.50;1.40;;;;;;;;;;5047486;28;20025;-78
2022/08/29 01:54:22;;;;;;;3.20;1.58;;;;;;;;;;5049487;28;20516;-74
2022/08/29 01:56:52;;;;;;;6.07;1.65;;;;;;;;;;5042026;28;20029;-81
2022/08/29 01:59:20;;;;;;;3.67;1.60;;;;;;;;;;5054298;28;20172;-75
2022/08/29 02:01:59;;;;;;;4.93;1.60;;;;;;;;;;5042256;28;20029;-76
2022/08/29 02:04:24;;;;;;;2.30;1.30;;;;;;;;;;5054079;28;20024;-78
2022/08/29 02:06:50;;;;;;;3.25;1.50;;;;;;;;;;5051374;28;20477;-78
2022/08/29 02:09:16;;;;;;;3.80;1.65;;;;;;;;;;5043398;28;20492;-77
2022/08/29 02:11:43;;;;;;;5.68;1.60;;;;;;;;;;5046906;28;20025;-74
2022/08/29 02:14:09;;;;;;;3.38;1.55;;;;;;;;;;5054068;28;20028;-74
2022/08/29 02:16:34;;;;;;;3.70;1.70;;;;;;;;;;5047735;28;20059;-78
2022/08/29 02:19:00;;;;;;;2.33;1.45;;;;;;;;;;5052666;28;20025;-76
2022/08/29 02:21:28;;;;;;;3.03;1.60;;;;;;;;;;5053196;28;20032;-81
2022/08/29 02:23:55;;;;;;;3.50;1.70;;;;;;;;;;5050858;28;20029;-76
2022/08/29 02:26:21;;;;;;;2.05;1.33;;;;;;;;;;5051966;28;20099;-74
2022/08/29 02:28:49;;;;;;;3.30;1.80;;;;;;;;;;5052535;28;20029;-78
2022/08/29 02:31:15;;;;;;;3.28;1.60;;;;;;;;;;5053091;28;20020;-78
2022/08/29 02:33:41;;;;;;;4.07;1.50;;;;;;;;;;5053736;28;20053;-78
2022/08/29 02:36:07;;;;;;;3.60;1.58;;;;;;;;;;5051037;28;20362;-73
2022/08/29 02:38:33;;;;;;;2.38;1.33;;;;;;;;;;5044398;28;20029;-78
2022/08/29 02:40:59;;;;;;;3.50;1.55;;;;;;;;;;5052474;28;20027;-78
2022/08/29 02:43:25;;;;;;;4.57;1.95;;;;;;;;;;5052300;28;20405;-81
2022/08/29 02:45:50;;;;;;;2.88;1.60;;;;;;;;;;5035498;28;20040;-75
2022/08/29 02:48:16;;;;;;;6.97;1.90;;;;;;;;;;5048861;28;20036;-81
2022/08/29 02:50:47;;;;;;;3.35;1.73;;;;;;;;;;5044882;28;20025;-75
2022/08/29 02:53:18;;;;;;;3.95;1.48;;;;;;;;;;5048799;28;20025;-74
2022/08/29 02:55:45;;;;;;;3.33;1.80;;;;;;;;;;5037570;28;20021;-81
2022/08/29 02:58:11;;;;;;;3.47;1.90;;;;;;;;;;5049882;28;20040;-78
2022/08/29 03:00:36;;;;;;;2.72;1.65;;;;;;;;;;5052352;28;20485;-74
2022/08/29 03:03:03;;;;;;;3.13;1.52;;;;;;;;;;5052916;28;20485;-78
2022/08/29 03:05:33;;;;;;;3.97;1.80;;;;;;;;;;5037815;28;20437;-76
2022/08/29 03:08:00;;;;;;;3.65;1.88;;;;;;;;;;5048955;28;20053;-76
2022/08/29 03:10:26;;;;;;;3.63;1.70;;;;;;;;;;5051742;28;20028;-75
2022/08/29 03:12:52;;;;;;;2.72;1.73;;;;;;;;;;5051897;28;20519;-73
2022/08/29 03:15:17;;;;;;;3.35;1.88;;;;;;;;;;5046984;28;20024;-75
2022/08/29 03:17:44;;;;;;;3.40;1.70;;;;;;;;;;5052951;28;20032;-74
2022/08/29 03:20:11;;;;;;;3.50;1.95;;;;;;;;;;5052053;28;20038;-78
2022/08/29 03:22:37;;;;;;;3.45;1.42;;;;;;;;;;5051509;28;20067;-74
2022/08/29 03:25:03;;;;;;;5.03;1.80;;;;;;;;;;5051105;28;20048;-79
2022/08/29 03:27:30;;;;;;;4.47;1.88;;;;;;;;;;5048230;28;20114;-76
2022/08/29 03:29:55;;;;;;;4.28;2.00;;;;;;;;;;5050095;28;20029;-78
2022/08/29 03:32:21;;;;;;;2.72;1.90;;;;;;;;;;5049503;28;20538;-81
2022/08/29 03:34:46;;;;;;;5.03;1.98;;;;;;;;;;5050673;28;20025;-76
2022/08/29 03:37:12;;;;;;;3.40;1.85;;;;;;;;;;5047761;28;20025;-74
2022/08/29 03:39:37;;;;;;;3.38;2.08;;;;;;;;;;5044334;28;20036;-81
2022/08/29 03:42:04;;;;;;;3.42;1.90;;;;;;;;;;5047403;28;20028;-74
2022/08/29 03:44:35;;;;;;;3.47;1.83;;;;;;;;;;5052562;28;20462;-80
2022/08/29 03:47:00;;;;;;;4.50;2.00;;;;;;;;;;5046287;28;20033;-76
2022/08/29 03:49:26;;;;;;;4.13;2.20;;;;;;;;;;5052556;28;20385;-74
2022/08/29 03:51:52;;;;;;;4.72;1.80;;;;;;;;;;5052442;28;20025;-78
2022/08/29 03:54:17;;;;;;;3.38;1.80;;;;;;;;;;5052500;28;20437;-76
2022/08/29 03:56:43;;;;;;;3.35;1.50;;;;;;;;;;5042691;28;20075;-76
2022/08/29 03:59:10;;;;;;;3.00;1.58;;;;;;;;;;5052314;28;20384;-79
2022/08/29 04:01:35;;;;;;;2.92;1.60;;;;;;;;;;5041909;28;20029;-74
2022/08/29 04:04:01;;;;;;;3.40;1.58;;;;;;;;;;5051238;28;20044;-74
2022/08/29 04:06:27;;;;;;;3.97;1.77;;;;;;;;;;5052230;28;20457;-81
2022/08/29 04:08:53;;;;;;;3.05;1.65;;;;;;;;;;5050947;28;20111;-76
2022/08/29 04:11:22;;;;;;;3.03;1.77;;;;;;;;;;5047637;28;20025;-74
2022/08/29 04:13:47;;;;;;;4.28;2.00;;;;;;;;;;5046565;28;20425;-81
2022/08/29 04:16:22;;;;;;;3.47;1.90;;;;;;;;;;5041572;28;20025;-74
2022/08/29 04:18:47;;;;;;;3.13;1.92;;;;;;;;;;5051100;28;20033;-76
2022/08/29 04:21:14;;;;;;;3.92;2.03;;;;;;;;;;5051585;28;20069;-81
2022/08/29 04:23:39;;;;;;;3.35;1.80;;;;;;;;;;5050869;28;20124;-76
2022/08/29 04:26:13;;;;;;;3.25;1.90;;;;;;;;;;5050278;28;20060;-79
2022/08/29 04:28:38;;;;;;;4.55;1.83;;;;;;;;;;5052218;28;20074;-74
2022/08/29 04:31:04;;;;;;;3.47;2.00;;;;;;;;;;5051652;28;20033;-74
2022/08/29 04:33:30;;;;;;;2.80;1.80;;;;;;;;;;5043371;28;20054;-76
2022/08/29 04:35:55;;;;;;;4.50;2.03;;;;;;;;;;5045417;28;20032;-78
2022/08/29 04:38:21;;;;;;;4.00;2.20;;;;;;;;;;5044425;28;20021;-74
2022/08/29 04:40:47;;;;;;;4.20;2.00;;;;;;;;;;5054876;28;20389;-76
2022/08/29 04:43:12;;;;;;;5.10;1.90;;;;;;;;;;5055847;28;20013;-81
2022/08/29 04:45:39;;;;;;;3.95;2.22;;;;;;;;;;5042881;28;20025;-81
2022/08/29 04:48:05;;;;;;;5.22;2.20;;;;;;;;;;5042533;28;20384;-78
2022/08/29 04:50:31;;;;;;;5.18;1.80;;;;;;;;;;5048481;28;20076;-78
2022/08/29 04:52:57;;;;;;;3.33;1.92;;;;;;;;;;5052311;28;20033;-74
2022/08/29 04:55:24;;;;;;;3.80;2.17;;;;;;;;;;5049093;28;20028;-75
2022/08/29 04:57:55;;;;;;;3.88;2.00;;;;;;;;;;5048011;28;20040;-76
2022/08/29 05:00:25;;;;;;;3.72;2.17;;;;;;;;;;5038399;28;20116;-76
2022/08/29 05:02:50;;;;;;;3.97;2.28;;;;;;;;;;5042142;28;20029;-78
2022/08/29 05:05:15;;;;;;;4.38;2.20;;;;;;;;;;5046367;28;20432;-76
2022/08/29 05:07:41;;;;;;;2.80;1.83;;;;;;;;;;5050152;28;20295;-74
2022/08/29 05:10:12;;;;;;;4.50;2.20;;;;;;;;;;5044232;28;20065;-76
2022/08/29 05:12:38;;;;;;;3.38;2.10;;;;;;;;;;5050864;28;20036;-76
2022/08/29 05:15:06;;;;;;;4.53;2.22;;;;;;;;;;5052607;28;20020;-79
2022/08/29 05:17:31;;;;;;;3.65;2.17;;;;;;;;;;5054644;28;20025;-76
2022/08/29 05:19:57;;;;;;;3.88;2.33;;;;;;;;;;5053232;28;20492;-78
2022/08/29 05:22:23;;;;;;;4.10;2.25;;;;;;;;;;5053710;28;20052;-75
2022/08/29 05:24:50;;;;;;;4.28;2.20;;;;;;;;;;5052254;28;20446;-74
2022/08/29 05:27:18;;;;;;;4.13;2.30;;;;;;;;;;5049369;28;20025;-76
2022/08/29 05:29:47;;;;;;;3.35;2.30;;;;;;;;;;5053910;28;20070;-81
2022/08/29 05:32:13;;;;;;;3.95;2.25;;;;;;;;;;5045500;28;20481;-74
2022/08/29 05:34:40;;;;;;;5.70;2.67;;;;;;;;;;5051220;28;20044;-74
2022/08/29 05:37:09;;;;;;;4.68;2.60;;;;;;;;;;5050442;28;20025;-79
2022/08/29 05:39:36;;;;;;;5.35;2.40;;;;;;;;;;5051712;28;20029;-78
2022/08/29 05:42:02;;;;;;;5.45;2.50;;;;;;;;;;5051030;28;20090;-81
2022/08/29 05:44:30;;;;;;;4.70;2.38;;;;;;;;;;5053169;28;20429;-74
2022/08/29 05:46:55;;;;;;;3.83;2.30;;;;;;;;;;5052724;28;20033;-76
2022/08/29 05:49:21;;;;;;;7.45;2.50;;;;;;;;;;5052400;28;20096;-75
2022/08/29 05:51:46;;;;;;;5.20;2.38;;;;;;;;;;5044988;28;20032;-74
2022/08/29 05:54:12;;;;;;;5.13;2.53;;;;;;;;;;5053203;28;20397;-74
2022/08/29 05:56:39;;;;;;;4.93;2.80;;;;;;;;;;5051280;28;20029;-78
2022/08/29 05:59:07;;;;;;;4.40;3.10;;;;;;;;;;5053092;28;20044;-76
2022/08/29 06:01:33;;;;;;;4.35;3.00;;;;;;;;;;5040793;28;20032;-81
2022/08/29 06:04:00;;;;;;;3.92;2.40;;;;;;;;;;5053093;28;20385;-76
2022/08/29 06:06:27;;;;;;;8.27;2.88;;;;;;;;;;5049933;28;20035;-79
2022/08/29 06:08:54;;;;;;;4.05;2.83;;;;;;;;;;5041421;28;20040;-81
2022/08/29 06:11:23;;;;;;;4.75;2.95;;;;;;;;;;5046677;28;20035;-78
2022/08/29 06:13:49;;;;;;;4.25;2.40;;;;;;;;;;5052894;28;20028;-74
2022/08/29 06:16:17;;;;;;;4.15;2.38;;;;;;;;;;5046879;28;20020;-76
2022/08/29 06:18:43;;;;;;;4.40;2.70;;;;;;;;;;5053863;28;20025;-75
2022/08/29 06:21:09;;;;;;;4.40;2.50;;;;;;;;;;5052782;28;20086;-81
2022/08/29 06:23:35;;;;;;;4.18;2.35;;;;;;;;;;5053711;28;20024;-79
2022/08/29 06:26:01;;;;;;;4.78;2.88;;;;;;;;;;5053877;28;20021;-76
2022/08/29 06:28:28;;;;;;;4.00;2.53;;;;;;;;;;5052302;28;20078;-80
2022/08/29 06:30:54;;;;;;;5.55;2.85;;;;;;;;;;5053780;28;20036;-75
2022/08/29 06:33:19;;;;;;;4.60;2.70;;;;;;;;;;5053259;28;20045;-76
2022/08/29 06:35:45;;;;;;;4.40;2.80;;;;;;;;;;5051837;28;20110;-79
2022/08/29 06:38:10;;;;;;;5.82;3.10;;;;;;;;;;5050890;28;20032;-79
2022/08/29 06:40:36;;;;;;;5.63;3.10;;;;;;;;;;5045931;28;20033;-76
2022/08/29 06:43:01;;;;;;;4.97;3.13;;;;;;;;;;5048722;28;20025;-75
2022/08/29 06:45:27;;;;;;;6.88;3.47;;;;;;;;;;5051507;28;20036;-76
2022/08/29 06:47:53;;;;;;;4.93;2.92;;;;;;;;;;5052455;28;20017;-79
2022/08/29 06:50:18;;;;;;;5.45;3.10;;;;;;;;;;5051556;28;20032;-76
2022/08/29 06:52:44;;;;;;;4.50;3.00;;;;;;;;;;5053311;28;20020;-81
2022/08/29 06:55:11;;;;;;;5.60;3.25;;;;;;;;;;5050049;28;20028;-75
2022/08/29 06:57:43;;;;;;;4.60;2.67;;;;;;;;;;5048352;28;20495;-76
2022/08/29 07:00:14;;;;;;;6.00;3.05;;;;;;;;;;5039026;28;20025;-79
2022/08/29 07:02:41;;;;;;;5.82;2.90;;;;;;;;;;5051756;28;20056;-79
2022/08/29 07:05:07;;;;;;;6.00;3.65;;;;;;;;;;5051860;28;20552;-76
2022/08/29 07:07:33;;;;;;;3.90;2.83;;;;;;;;;;5050939;28;20067;-81
2022/08/29 07:09:59;;;;;;;5.25;3.10;;;;;;;;;;5041062;28;20034;-79
2022/08/29 07:12:25;;;;;;;4.93;3.00;;;;;;;;;;5044453;28;20051;-74
2022/08/29 07:14:50;;;;;;;4.65;2.83;;;;;;;;;;5050267;28;20033;-81
2022/08/29 07:17:16;;;;;;;4.88;2.67;;;;;;;;;;5053058;28;20071;-75
2022/08/29 07:19:41;;;;;;;5.40;3.10;;;;;;;;;;5051092;28;20021;-75
2022/08/29 07:22:07;;;;;;;4.65;2.63;;;;;;;;;;5043599;28;20474;-79
2022/08/29 07:24:33;;;;;;;6.10;3.30;;;;;;;;;;5051137;28;20057;-75
2022/08/29 07:26:59;;;;;;;6.38;2.95;;;;;;;;;;5048899;28;20020;-79
2022/08/29 07:29:24;;;;;;;5.45;2.70;;;;;;;;;;5041390;28;20017;-75
2022/08/29 07:31:50;;;;;;;5.72;2.72;;;;;;;;;;5046774;28;20531;-74
2022/08/29 07:34:15;;;;;;;5.28;2.60;;;;;;;;;;5051300;28;20045;-79
2022/08/29 07:36:41;;;;;;;6.13;3.00;;;;;;;;;;5048230;28;20025;-81
2022/08/29 07:39:10;;;;;;;8.27;2.92;;;;;;;;;;5051152;28;20021;-74
2022/08/29 07:41:38;;;;;;;5.05;2.95;;;;;;;;;;5040153;28;20508;-79
2022/08/29 07:44:03;;;;;;;6.47;3.28;;;;;;;;;;5045378;28;20478;-75
2022/08/29 07:46:30;;;;;;;6.07;2.92;;;;;;;;;;5052497;28;20033;-76
2022/08/29 07:48:57;;;;;;;6.65;2.85;;;;;;;;;;5051577;28;20032;-74
2022/08/29 07:51:23;;;;;;;5.22;2.53;;;;;;;;;;5045290;28;20029;-75
2022/08/29 07:53:50;;;;;;;7.10;3.00;;;;;;;;;;5044717;28;20489;-79
2022/08/29 07:56:24;;;;;;;7.97;2.88;;;;;;;;;;5034294;28;20043;-76
2022/08/29 07:58:51;;;;;;;5.03;2.85;;;;;;;;;;5045231;28;20094;-81
2022/08/29 08:01:16;;;;;;;5.50;3.10;;;;;;;;;;5052391;28;20032;-80
2022/08/29 08:03:42;;;;;;;6.10;2.78;;;;;;;;;;5052433;28;20028;-76
2022/08/29 08:06:08;;;;;;;6.25;2.80;;;;;;;;;;5044173;28;20063;-74
2022/08/29 08:08:34;;;;;;;6.07;2.40;;;;;;;;;;5055441;28;20029;-76
2022/08/29 08:11:03;;;;;;;5.60;2.58;;;;;;;;;;5042961;28;20031;-75
2022/08/29 08:13:30;;;;;;;6.05;2.35;;;;;;;;;;5050161;28;20025;-80
2022/08/29 08:15:56;;;;;;;5.22;1.95;;;;;;;;;;5054265;28;20082;-81
2022/08/29 08:18:21;;;;;;;5.97;1.95;;;;;;;;;;5055473;28;20032;-75
2022/08/29 08:20:47;;;;;;;5.20;2.33;;;;;;;;;;5041122;28;20028;-75
2022/08/29 08:23:17;;;;;;;5.13;2.30;;;;;;;;;;5054984;28;20025;-76
2022/08/29 08:25:43;;;;;;;7.30;2.35;;;;;;;;;;5049521;28;20017;-80
2022/08/29 08:28:11;;;;;;;5.63;2.15;;;;;;;;;;5043594;28;20308;-79
2022/08/29 08:30:37;;;;;;;6.13;2.17;;;;;;;;;;5052937;28;20460;-75
2022/08/29 08:33:02;;;;;;;4.07;1.90;;;;;;;;;;5047072;28;20044;-81
2022/08/29 08:35:28;;;;;;;7.18;1.98;;;;;;;;;;5054293;28;20108;-80
2022/08/29 08:37:53;;;;;;;5.68;2.00;;;;;;;;;;5050891;28;20060;-81
2022/08/29 08:40:29;;;;;;;4.30;1.92;;;;;;;;;;5049992;28;20107;-80
2022/08/29 08:42:59;;;;;;;4.05;2.05;;;;;;;;;;5054006;28;20021;-79
2022/08/29 08:45:42;;;;;;;4.72;1.63;;;;;;;;;;5034855;28;20029;-74
2022/08/29 08:48:19;;;;;;;3.50;1.50;;;;;;;;;;5054454;28;20021;-81
2022/08/29 08:50:52;;;;;;;5.25;1.67;;;;;;;;;;5046541;28;20367;-74
2022/08/29 08:53:38;;;;;;;7.28;2.10;;;;;;;;;;5049070;28;20523;-79
2022/08/29 08:56:34;;;;;;;4.93;1.77;;;;;;;;;;5052886;28;20029;-81
2022/08/29 08:59:04;;;;;;;4.30;1.75;;;;;;;;;;5055557;28;20023;-74
2022/08/29 09:01:35;;;;;;;5.40;1.60;;;;;;;;;;5044663;28;20396;-80
2022/08/29 09:04:29;;;;;;;4.22;1.70;;;;;;;;;;5052751;28;20032;-75
2022/08/29 09:07:08;;;;;;;;;;;;;;;;;;5054312;28;20051;-81
2022/08/29 09:10:13;;;;;;;4.35;1.70;;;;;;;;;;5053998;28;19909;-75
2022/08/29 09:12:59;;;;;;;3.25;1.80;;;;;;;;;;5052902;28;20045;-74
2022/08/29 09:15:31;;;;;;;4.43;2.10;;;;;;;;;;5050185;28;20163;-76
2022/08/29 09:18:05;;;;;;;4.55;2.17;;;;;;;;;;5047168;28;20029;-75
2022/08/29 09:20:34;;;;;;;6.32;1.88;;;;;;;;;;5041846;28;20037;-81
2022/08/29 09:23:24;;;;;;;7.78;1.90;;;;;;;;;;5041721;28;20029;-80
2022/08/29 09:25:53;;;;;;;4.82;1.65;;;;;;;;;;5050248;28;20504;-76
2022/08/29 09:28:19;;;;;;;7.55;1.90;;;;;;;;;;5051119;28;20104;-80
2022/08/29 09:31:16;;;;;;;4.25;1.48;;;;;;;;;;5044648;28;20137;-80
2022/08/29 09:34:10;;;;;;;3.88;1.75;;;;;;;;;;5041687;28;20049;-75
2022/08/29 09:36:46;;;;;;;5.25;1.80;;;;;;;;;;5048283;28;20072;-79
2022/08/29 09:39:26;;;;;;;3.55;1.70;;;;;;;;;;5051396;28;20044;-80
2022/08/29 09:42:10;;;;;;;6.40;1.35;;;;;;;;;;5042990;28;20068;-76
2022/08/29 09:44:37;;;;;;;4.18;1.70;;;;;;;;;;5041739;28;20478;-80
2022/08/29 09:47:12;;;;;;;5.22;1.60;;;;;;;;;;5053999;28;20059;-76
2022/08/29 09:49:40;;;;;;;3.92;1.65;;;;;;;;;;5049788;28;20033;-74
2022/08/29 09:52:22;;;;;;;3.55;1.70;;;;;;;;;;5042694;28;20040;-77
2022/08/29 09:54:48;;;;;;;4.20;1.80;;;;;;;;;;5051822;28;20029;-81
2022/08/29 09:57:27;;;;;;;4.53;1.80;;;;;;;;;;5042133;28;20029;-74
2022/08/29 10:00:15;;;;;;;7.18;1.83;;;;;;;;;;5050537;28;20043;-81
2022/08/29 10:02:51;;;;;;;5.65;1.60;;;;;;;;;;5048690;28;20447;-80
2022/08/29 10:05:44;;;;;;;4.35;1.70;;;;;;;;;;5053280;28;20544;-81
2022/08/29 10:08:30;;;;;;;4.30;1.55;;;;;;;;;;5052161;28;20033;-82
2022/08/29 10:11:01;;;;;;;4.60;1.73;;;;;;;;;;5043863;28;20029;-81
2022/08/29 10:13:47;;;;;;;4.22;1.67;;;;;;;;;;5047751;28;20039;-81
2022/08/29 10:16:28;;;;;;;5.47;1.77;;;;;;;;;;5046575;28;20044;-75
2022/08/29 10:18:58;;;;;;;4.85;1.70;;;;;;;;;;5052782;28;20068;-81
2022/08/29 10:21:31;;;;;;;3.53;1.70;;;;;;;;;;5053264;28;20096;-80
2022/08/29 10:24:15;;;;;;;4.55;1.90;;;;;;;;;;5053996;28;20043;-81
2022/08/29 10:26:53;;;;;;;5.13;1.77;;;;;;;;;;5043207;28;20040;-76
2022/08/29 10:29:25;;;;;;;4.15;1.88;;;;;;;;;;5052742;28;20021;-76
2022/08/29 10:31:58;;;;;;;5.43;1.70;;;;;;;;;;5053104;28;20112;-80
2022/08/29 10:34:59;;;;;;;3.05;1.48;;;;;;;;;;5051699;28;20049;-76
2022/08/29 10:37:58;;;;;;;5.13;2.00;;;;;;;;;;5039880;28;20029;-76
2022/08/29 10:41:01;;;;;;;5.30;1.80;;;;;;;;;;5041744;28;20039;-77
2022/08/29 10:43:29;;;;;;;5.63;1.73;;;;;;;;;;5046551;28;20055;-76
2022/08/29 10:46:24;;;;;;;4.35;1.85;;;;;;;;;;5052411;28;20111;-80
2022/08/29 10:49:18;;;;;;;3.38;1.65;;;;;;;;;;5049992;28;20060;-81
2022/08/29 10:51:55;;;;;;;4.53;2.00;;;;;;;;;;5049680;28;20025;-80
2022/08/29 10:54:26;;;;;;;5.88;1.90;;;;;;;;;;5048715;28;20025;-74
2022/08/29 10:56:53;;;;;;;5.88;1.95;;;;;;;;;;5050549;28;20020;-80
2022/08/29 10:59:30;;;;;;;3.67;1.70;;;;;;;;;;5049959;28;20052;-76
2022/08/29 11:02:08;;;;;;;5.05;1.58;;;;;;;;;;5044961;28;20048;-80
2022/08/29 11:04:40;;;;;;;4.82;1.90;;;;;;;;;;5050750;28;20029;-76
2022/08/29 11:07:17;;;;;;;4.13;1.95;;;;;;;;;;5046403;28;20378;-80
2022/08/29 11:09:49;;;;;;;4.93;1.65;;;;;;;;;;5047733;28;20459;-79
2022/08/29 11:12:20;;;;;;;5.72;2.03;;;;;;;;;;5050455;28;20020;-75
2022/08/29 11:14:52;;;;;;;4.95;1.85;;;;;;;;;;5041597;28;20025;-81
2022/08/29 11:17:22;;;;;;;4.25;1.80;;;;;;;;;;5049380;28;20532;-79
2022/08/29 11:20:12;;;;;;;4.45;2.20;;;;;;;;;;5050699;28;20496;-81
2022/08/29 11:22:46;;;;;;;4.55;1.80;;;;;;;;;;5049034;28;20082;-75
2022/08/29 11:25:14;;;;;;;4.70;1.80;;;;;;;;;;5048734;28;20385;-76
2022/08/29 11:27:43;;;;;;;5.22;1.60;;;;;;;;;;5033612;28;20033;-80
2022/08/29 11:30:16;;;;;;;6.20;2.05;;;;;;;;;;5038905;28;20381;-75
2022/08/29 11:33:00;;;;;;;5.40;2.08;;;;;;;;;;5048579;28;20052;-75
2022/08/29 11:35:57;;;;;;;3.80;1.65;;;;;;;;;;5047975;28;20017;-81
2022/08/29 11:38:22;;;;;;;5.47;1.95;;;;;;;;;;5050001;28;20068;-76
2022/08/29 11:41:20;;;;;;;6.78;2.17;;;;;;;;;;5045854;28;20057;-81
2022/08/29 11:43:50;;;;;;;3.72;1.65;;;;;;;;;;5043607;28;20025;-81
2022/08/29 11:46:33;;;;;;;5.43;1.88;;;;;;;;;;5052325;28;20021;-75
2022/08/29 11:49:24;;;;;;;3.83;1.70;;;;;;;;;;5044686;28;20055;-81
2022/08/29 11:52:00;;;;;;;4.05;1.70;;;;;;;;;;5048222;28;20044;-81
2022/08/29 11:54:27;;;;;;;3.95;1.90;;;;;;;;;;5051351;28;20025;-81
2022/08/29 11:57:02;;;;;;;4.32;1.83;;;;;;;;;;5051986;28;20029;-81
2022/08/29 11:59:43;;;;;;;6.70;2.10;;;;;;;;;;5040654;28;20028;-75
2022/08/29 12:02:09;;;;;;;7.95;2.08;;;;;;;;;;5049865;28;20109;-75
2022/08/29 12:04:57;;;;;;;4.43;1.88;;;;;;;;;;5042311;28;20457;-76
2022/08/29 12:07:48;;;;;;;6.10;1.92;;;;;;;;;;5057449;28;20041;-80
2022/08/29 12:10:28;;;;;;;3.72;1.67;;;;;;;;;;5033117;28;20484;-80
2022/08/29 12:12:56;;;;;;;4.28;1.77;;;;;;;;;;5051973;28;20469;-75
2022/08/29 12:15:33;;;;;;;4.95;1.70;;;;;;;;;;5042758;28;20037;-76
2022/08/29 12:18:12;;;;;;;3.83;1.80;;;;;;;;;;5043761;28;20416;-76
2022/08/29 12:20:40;;;;;;;3.97;1.85;;;;;;;;;;5052392;28;20032;-80
2022/08/29 12:23:11;;;;;;;4.55;2.00;;;;;;;;;;5038912;28;20040;-75
2022/08/29 12:25:45;;;;;;;4.88;1.70;;;;;;;;;;5051092;28;20481;-81
2022/08/29 12:28:16;;;;;;;4.43;1.63;;;;;;;;;;5050861;28;20021;-81
2022/08/29 12:30:57;;;;;;;4.20;1.50;;;;;;;;;;5046548;28;20087;-81
2022/08/29 12:33:50;;;;;;;4.50;1.58;;;;;;;;;;5040528;28;20060;-81
2022/08/29 12:36:59;;;;;;;4.20;1.90;;;;;;;;;;5046224;28;20496;-81
2022/08/29 12:39:31;;;;;;;5.47;1.80;;;;;;;;;;5042318;28;20075;-80
2022/08/29 12:42:11;;;;;;;6.28;2.80;;;;;;;;;;5045917;28;20021;-81
2022/08/29 12:44:40;;;;;;;5.20;1.98;;;;;;;;;;5047016;28;20044;-81
2022/08/29 12:47:17;;;;;;;3.67;1.70;;;;;;;;;;5045940;28;20033;-81
2022/08/29 12:49:51;;;;;;;5.50;1.95;;;;;;;;;;5049080;28;20028;-82
2022/08/29 12:52:37;;;;;;;4.55;1.90;;;;;;;;;;5051402;28;20056;-80
2022/08/29 12:55:19;;;;;;;6.25;1.92;;;;;;;;;;5055016;28;20052;-80
2022/08/29 12:57:48;;;;;;;4.70;1.90;;;;;;;;;;5055489;28;20029;-81
2022/08/29 13:00:27;;;;;;;4.32;1.92;;;;;;;;;;5055779;28;20036;-81
2022/08/29 13:03:11;;;;;;;4.63;1.63;;;;;;;;;;5046782;28;20481;-75
2022/08/29 13:05:39;;;;;;;3.85;1.88;;;;;;;;;;5054220;28;20009;-81
2022/08/29 13:08:25;;;;;;;4.85;1.60;;;;;;;;;;5053442;28;20027;-76
2022/08/29 13:10:58;;;;;;;3.83;1.70;;;;;;;;;;5054159;28;20047;-76
2022/08/29 13:13:25;;;;;;;5.00;1.75;;;;;;;;;;5049728;28;20047;-75
2022/08/29 13:15:53;;;;;;;4.85;1.90;;;;;;;;;;5053853;28;20039;-74
2022/08/29 13:18:20;;;;;;;5.13;1.83;;;;;;;;;;5042068;28;20366;-75
2022/08/29 13:21:03;;;;;;;3.63;1.70;;;;;;;;;;5048108;28;20025;-81
2022/08/29 13:23:33;;;;;;;4.63;1.73;;;;;;;;;;5053204;28;20083;-81
2022/08/29 13:26:16;;;;;;;5.53;1.70;;;;;;;;;;5054983;28;20078;-75
2022/08/29 13:29:03;;;;;;;3.50;1.83;;;;;;;;;;5054946;28;21110;-75
2022/08/29 13:31:34;;;;;;;5.95;1.83;;;;;;;;;;5052299;28;20056;-81
2022/08/29 13:34:06;;;;;;;4.35;1.73;;;;;;;;;;5049531;28;20044;-80
2022/08/29 13:36:57;;;;;;;4.35;1.67;;;;;;;;;;5052709;28;20041;-80
2022/08/29 13:39:28;;;;;;;4.25;1.65;;;;;;;;;;5051079;28;20451;-81
2022/08/29 13:41:56;;;;;;;4.20;1.80;;;;;;;;;;5049642;28;20049;-76
2022/08/29 13:44:26;;;;;;;4.07;1.80;;;;;;;;;;5051284;28;20056;-81
2022/08/29 13:46:56;;;;;;;5.65;1.83;;;;;;;;;;5048567;28;20025;-81
2022/08/29 13:49:27;;;;;;;7.35;1.80;;;;;;;;;;5049841;28;20028;-77
2022/08/29 13:51:54;;;;;;;5.10;1.80;;;;;;;;;;5039282;28;20344;-81
2022/08/29 13:54:21;;;;;;;4.53;1.67;;;;;;;;;;5048680;28;20063;-76
2022/08/29 13:56:53;;;;;;;5.20;2.45;;;;;;;;;;5052615;28;20029;-75
2022/08/29 13:59:21;;;;;;;4.72;1.75;;;;;;;;;;5054517;28;20436;-76
2022/08/29 14:01:46;;;;;;;4.20;1.70;;;;;;;;;;5051211;28;20074;-80
2022/08/29 14:04:12;;;;;;;6.03;2.00;;;;;;;;;;5050586;28;20032;-81
2022/08/29 14:06:38;;;;;;;4.07;1.73;;;;;;;;;;5051309;28;20481;-75
2022/08/29 14:09:05;;;;;;;4.78;2.00;;;;;;;;;;5045302;28;20036;-80
2022/08/29 14:11:30;;;;;;;4.25;2.00;;;;;;;;;;5052902;28;20029;-76
2022/08/29 14:13:56;;;;;;;4.53;2.38;;;;;;;;;;5052953;28;20020;-81
2022/08/29 14:16:21;;;;;;;3.97;1.60;;;;;;;;;;5053174;28;20087;-77
2022/08/29 14:18:48;;;;;;;5.30;2.22;;;;;;;;;;5045976;28;20032;-81
2022/08/29 14:21:14;;;;;;;6.57;1.90;;;;;;;;;;5051832;28;20021;-75
2022/08/29 14:23:40;;;;;;;2.80;1.70;;;;;;;;;;5044792;28;20025;-81
2022/08/29 14:26:05;;;;;;;4.30;1.90;;;;;;;;;;5052674;28;20078;-81
2022/08/29 14:28:31;;;;;;;5.35;2.03;;;;;;;;;;5042188;28;20071;-81
2022/08/29 14:30:56;;;;;;;5.68;2.20;;;;;;;;;;5054022;28;20052;-80
2022/08/29 14:33:22;;;;;;;4.32;2.08;;;;;;;;;;5046301;28;20072;-80
2022/08/29 14:35:48;;;;;;;5.18;2.00;;;;;;;;;;5052475;28;20501;-76
2022/08/29 14:38:17;;;;;;;3.33;1.90;;;;;;;;;;5052246;28;20083;-80
2022/08/29 14:40:43;;;;;;;4.80;1.88;;;;;;;;;;5053614;28;20021;-76
2022/08/29 14:43:09;;;;;;;4.70;2.00;;;;;;;;;;5052195;28;20036;-76
2022/08/29 14:45:35;;;;;;;6.35;2.05;;;;;;;;;;5053113;28;20406;-76
2022/08/29 14:48:01;;;;;;;4.40;2.42;;;;;;;;;;5042493;28;20028;-76
2022/08/29 14:50:26;;;;;;;5.43;1.83;;;;;;;;;;5053580;28;20086;-75
2022/08/29 14:52:52;;;;;;;5.20;2.00;;;;;;;;;;5050480;28;20439;-79
2022/08/29 14:55:18;;;;;;;7.93;2.17;;;;;;;;;;5052520;28;20504;-79
2022/08/29 14:57:44;;;;;;;4.88;2.00;;;;;;;;;;5050617;28;20132;-80
2022/08/29 15:00:22;;;;;;;4.30;2.20;;;;;;;;;;5051886;28;20063;-81
2022/08/29 15:02:48;;;;;;;5.38;1.95;;;;;;;;;;5048450;28;20030;-80